createdAt,value
2017-04-05T00:00:45.100Z,83.48
2017-04-05T00:01:45.172Z,83
2017-04-05T00:02:45.162Z,82.91
2017-04-05T00:03:45.197Z,82.81
2017-04-05T00:04:45.235Z,82.81
2017-04-05T00:05:45.266Z,83
2017-04-05T00:06:45.304Z,83
2017-04-05T00:07:45.342Z,82.81
2017-04-05T00:08:45.376Z,82.91
2017-04-05T00:09:45.410Z,83.1
2017-04-05T00:10:45.447Z,83
2017-04-05T00:11:45.478Z,83
2017-04-05T00:12:45.511Z,82.91
2017-04-05T00:13:45.543Z,83
2017-04-05T00:14:45.582Z,82.81
2017-04-05T00:15:45.618Z,82.67
2017-04-05T00:16:45.652Z,82.62
2017-04-05T00:17:45.684Z,82.71
2017-04-05T00:18:45.717Z,82.91
2017-04-05T00:19:45.758Z,83.19
2017-04-05T00:20:46.088Z,83
2017-04-05T00:21:45.827Z,82.81
2017-04-05T00:22:45.856Z,82.91
2017-04-05T00:23:45.896Z,83
2017-04-05T00:24:45.924Z,82.91
2017-04-05T00:25:45.958Z,82.81
2017-04-05T00:26:46.000Z,83.1
2017-04-05T00:27:46.028Z,82.81
2017-04-05T00:28:46.066Z,82.81
2017-04-05T00:29:46.095Z,82.91
2017-04-05T00:30:46.132Z,82.81
2017-04-05T00:31:46.170Z,82.81
2017-04-05T00:32:46.203Z,82.91
2017-04-05T00:33:46.234Z,82.91
2017-04-05T00:34:46.275Z,82.91
2017-04-05T00:35:46.311Z,82.71
2017-04-05T00:36:46.339Z,83.58
2017-04-05T00:37:46.371Z,83.58
2017-04-05T00:38:46.408Z,83.19
2017-04-05T00:39:46.454Z,83.29
2017-04-05T00:40:46.474Z,83.29
2017-04-05T00:41:46.514Z,83.48
2017-04-05T00:42:46.847Z,83.48
2017-04-05T00:43:46.582Z,83.1
2017-04-05T00:44:46.616Z,83.39
2017-04-05T00:45:46.656Z,83.39
2017-04-05T00:46:46.687Z,83.39
2017-04-05T00:47:46.718Z,83.48
2017-04-05T00:48:46.757Z,83.58
2017-04-05T00:49:46.788Z,83.29
2017-04-05T00:50:46.826Z,83.29
2017-04-05T00:51:46.854Z,83.29
2017-04-05T00:52:46.888Z,83.29
2017-04-05T00:53:46.928Z,83.29
2017-04-05T00:54:46.957Z,83.39
2017-04-05T00:55:46.993Z,83.29
2017-04-05T00:56:47.031Z,83.39
2017-04-05T00:57:47.061Z,83.39
2017-04-05T00:58:47.101Z,83.58
2017-04-05T00:59:47.136Z,83.29
2017-04-05T01:00:47.190Z,83.29
2017-04-05T01:01:47.198Z,83.19
2017-04-05T01:02:47.234Z,83.29
2017-04-05T01:03:47.272Z,82.71
2017-04-05T01:04:47.304Z,83.1
2017-04-05T01:05:47.340Z,83
2017-04-05T01:06:47.370Z,82.62
2017-04-05T01:07:47.404Z,83.19
2017-04-05T01:08:47.465Z,83.1
2017-04-05T01:09:47.478Z,83.1
2017-04-05T01:10:47.513Z,83
2017-04-05T01:11:47.547Z,82.34
2017-04-05T01:12:47.577Z,82.62
2017-04-05T01:13:47.614Z,82.53
2017-04-05T01:14:47.647Z,82.91
2017-04-05T01:15:47.685Z,82.53
2017-04-05T01:16:47.721Z,82.91
2017-04-05T01:17:47.755Z,82.91
2017-04-05T01:18:47.785Z,82.62
2017-04-05T01:19:47.818Z,82.62
2017-04-05T01:20:47.858Z,82.62
2017-04-05T01:21:47.888Z,82.24
2017-04-05T01:22:47.927Z,82.53
2017-04-05T01:23:47.957Z,82.53
2017-04-05T01:24:47.992Z,82.62
2017-04-05T01:25:48.031Z,82.53
2017-04-05T01:26:48.063Z,82.15
2017-04-05T01:27:48.092Z,82.81
2017-04-05T01:28:48.136Z,82.62
2017-04-05T01:29:48.162Z,82.62
2017-04-05T01:30:48.208Z,82.53
2017-04-05T01:31:48.251Z,82.62
2017-04-05T01:32:48.267Z,82.62
2017-04-05T01:33:48.302Z,82.81
2017-04-05T01:34:48.337Z,82.71
2017-04-05T01:35:48.374Z,82.53
2017-04-05T01:36:48.404Z,82.71
2017-04-05T01:37:48.437Z,82.91
2017-04-05T01:38:48.476Z,82.71
2017-04-05T01:39:48.507Z,82.24
2017-04-05T01:40:48.552Z,82.53
2017-04-05T01:41:48.577Z,82.15
2017-04-05T01:42:48.639Z,82.62
2017-04-05T01:43:48.649Z,82.53
2017-04-05T01:44:48.678Z,82.34
2017-04-05T01:45:48.730Z,82.53
2017-04-05T01:46:48.746Z,82.34
2017-04-05T01:47:48.783Z,82.34
2017-04-05T01:48:48.816Z,82.53
2017-04-05T01:49:49.154Z,82.53
2017-04-05T01:50:48.890Z,82.62
2017-04-05T01:51:48.919Z,82.62
2017-04-05T01:52:48.966Z,82.53
2017-04-05T01:53:48.987Z,82.62
2017-04-05T01:54:49.033Z,82.62
2017-04-05T01:55:49.057Z,82.71
2017-04-05T01:56:49.098Z,82.15
2017-04-05T01:57:49.132Z,82.81
2017-04-05T01:58:49.160Z,82.24
2017-04-05T01:59:49.196Z,82.81
2017-04-05T02:00:49.228Z,82.15
2017-04-05T02:01:49.269Z,82.24
2017-04-05T02:02:49.300Z,82.81
2017-04-05T02:03:49.342Z,82.05
2017-04-05T02:04:49.372Z,82.81
2017-04-05T02:05:49.402Z,82.91
2017-04-05T02:06:49.437Z,81.86
2017-04-05T02:07:49.475Z,82.91
2017-04-05T02:08:49.508Z,82.91
2017-04-05T02:09:49.540Z,82.71
2017-04-05T02:10:49.575Z,82.71
2017-04-05T02:11:49.612Z,82.71
2017-04-05T02:12:49.648Z,82.34
2017-04-05T02:13:49.682Z,82.53
2017-04-05T02:14:49.720Z,82.62
2017-04-05T02:15:49.746Z,82.53
2017-04-05T02:16:49.782Z,82.62
2017-04-05T02:17:49.816Z,82.34
2017-04-05T02:18:49.858Z,82.34
2017-04-05T02:19:49.889Z,82.34
2017-04-05T02:20:49.923Z,82.53
2017-04-05T02:21:49.954Z,82.34
2017-04-05T02:22:49.990Z,82.53
2017-04-05T02:23:50.029Z,82.62
2017-04-05T02:24:50.062Z,82.71
2017-04-05T02:25:50.402Z,82.81
2017-04-05T02:26:50.133Z,81.86
2017-04-05T02:27:50.167Z,82.15
2017-04-05T02:28:50.196Z,82.15
2017-04-05T02:29:50.238Z,82.05
2017-04-05T02:30:50.273Z,81.86
2017-04-05T02:31:50.301Z,82.15
2017-04-05T02:32:50.340Z,81.86
2017-04-05T02:33:50.375Z,81.67
2017-04-05T02:34:50.409Z,81.48
2017-04-05T02:35:50.440Z,81.58
2017-04-05T02:36:50.481Z,81.86
2017-04-05T02:37:50.517Z,81.77
2017-04-05T02:38:50.541Z,81.67
2017-04-05T02:39:50.577Z,81.2
2017-04-05T02:40:50.611Z,81.77
2017-04-05T02:41:50.647Z,81.29
2017-04-05T02:42:50.983Z,81.2
2017-04-05T02:43:50.715Z,81.29
2017-04-05T02:44:50.758Z,81.48
2017-04-05T02:45:50.786Z,81.29
2017-04-05T02:46:50.825Z,81.48
2017-04-05T02:47:50.858Z,81.2
2017-04-05T02:48:50.889Z,81.48
2017-04-05T02:49:50.926Z,81.29
2017-04-05T02:50:50.957Z,81.77
2017-04-05T02:51:50.998Z,80.82
2017-04-05T02:52:51.033Z,80.82
2017-04-05T02:53:51.067Z,80.86
2017-04-05T02:54:51.100Z,80.72
2017-04-05T02:55:51.133Z,80.82
2017-04-05T02:56:51.165Z,81.1
2017-04-05T02:57:51.198Z,80.86
2017-04-05T02:58:51.240Z,80.91
2017-04-05T02:59:51.274Z,81.05
2017-04-05T03:00:51.304Z,81.01
2017-04-05T03:01:51.343Z,80.91
2017-04-05T03:02:51.377Z,80.91
2017-04-05T03:03:51.409Z,80.91
2017-04-05T03:04:51.441Z,80.91
2017-04-05T03:05:51.478Z,81.1
2017-04-05T03:06:51.515Z,81.1
2017-04-05T03:07:51.547Z,81.14
2017-04-05T03:08:51.580Z,80.91
2017-04-05T03:09:51.620Z,81.48
2017-04-05T03:10:51.648Z,80.82
2017-04-05T03:11:51.691Z,80.86
2017-04-05T03:12:51.722Z,81.1
2017-04-05T03:13:51.752Z,80.72
2017-04-05T03:14:51.791Z,81.01
2017-04-05T03:15:51.826Z,81.1
2017-04-05T03:16:51.856Z,81.05
2017-04-05T03:17:51.890Z,81.1
2017-04-05T03:18:51.931Z,81.1
2017-04-05T03:19:51.963Z,81.01
2017-04-05T03:20:51.994Z,81.1
2017-04-05T03:21:52.036Z,80.72
2017-04-05T03:22:52.071Z,80.95
2017-04-05T03:23:52.105Z,80.86
2017-04-05T03:24:52.136Z,80.66
2017-04-05T03:25:52.175Z,80.44
2017-04-05T03:26:52.202Z,80.95
2017-04-05T03:27:52.239Z,80.47
2017-04-05T03:28:52.285Z,80.38
2017-04-05T03:29:52.307Z,80.57
2017-04-05T03:30:52.343Z,80.57
2017-04-05T03:31:52.379Z,80.76
2017-04-05T03:32:52.417Z,80.57
2017-04-05T03:33:52.448Z,80.66
2017-04-05T03:34:52.485Z,80.76
2017-04-05T03:35:52.519Z,80.66
2017-04-05T03:36:52.556Z,80.47
2017-04-05T03:37:52.582Z,80.47
2017-04-05T03:38:52.622Z,80.47
2017-04-05T03:39:52.652Z,80.19
2017-04-05T03:40:52.689Z,80.66
2017-04-05T03:41:52.726Z,80.47
2017-04-05T03:42:52.756Z,80.29
2017-04-05T03:43:52.795Z,80.29
2017-04-05T03:44:52.826Z,80.38
2017-04-05T03:45:52.860Z,80.29
2017-04-05T03:46:52.899Z,80.19
2017-04-05T03:47:52.932Z,80.19
2017-04-05T03:48:52.964Z,80.1
2017-04-05T03:49:53.016Z,80.1
2017-04-05T03:50:53.045Z,80.1
2017-04-05T03:51:53.069Z,80.19
2017-04-05T03:52:53.103Z,80.47
2017-04-05T03:53:53.140Z,80.29
2017-04-05T03:54:53.179Z,80.38
2017-04-05T03:55:53.207Z,79.91
2017-04-05T03:56:53.248Z,79.91
2017-04-05T03:57:53.288Z,79.81
2017-04-05T03:58:53.316Z,79.72
2017-04-05T03:59:53.346Z,80.19
2017-04-05T04:00:53.389Z,80
2017-04-05T04:01:53.419Z,80.19
2017-04-05T04:02:53.452Z,79.91
2017-04-05T04:03:53.491Z,79.81
2017-04-05T04:04:53.519Z,80.29
2017-04-05T04:05:53.560Z,80.1
2017-04-05T04:06:53.594Z,80.38
2017-04-05T04:07:53.622Z,80.1
2017-04-05T04:08:53.657Z,80.19
2017-04-05T04:09:53.994Z,80.57
2017-04-05T04:10:53.732Z,80.29
2017-04-05T04:11:53.769Z,80.38
2017-04-05T04:12:53.802Z,80.57
2017-04-05T04:13:53.833Z,80.66
2017-04-05T04:14:53.869Z,80.57
2017-04-05T04:15:53.906Z,80.72
2017-04-05T04:16:53.937Z,81.33
2017-04-05T04:17:53.969Z,81.01
2017-04-05T04:18:54.004Z,81.2
2017-04-05T04:19:54.044Z,81.1
2017-04-05T04:20:54.073Z,81.2
2017-04-05T04:21:54.115Z,81.58
2017-04-05T04:22:54.141Z,81.29
2017-04-05T04:23:54.185Z,81.71
2017-04-05T04:24:54.216Z,81.1
2017-04-05T04:25:54.250Z,82.05
2017-04-05T04:26:54.285Z,81.96
2017-04-05T04:27:54.316Z,82.05
2017-04-05T04:28:54.355Z,82.15
2017-04-05T04:29:54.383Z,82.05
2017-04-05T04:30:54.418Z,81.86
2017-04-05T04:31:54.458Z,81.77
2017-04-05T04:32:54.490Z,82.43
2017-04-05T04:33:54.524Z,82.24
2017-04-05T04:34:54.557Z,82.71
2017-04-05T04:35:54.593Z,82.62
2017-04-05T04:36:54.627Z,82.62
2017-04-05T04:37:54.662Z,82.62
2017-04-05T04:38:54.700Z,82.62
2017-04-05T04:39:54.731Z,82.91
2017-04-05T04:40:55.069Z,82.53
2017-04-05T04:41:54.799Z,82.91
2017-04-05T04:42:54.831Z,82.71
2017-04-05T04:43:54.867Z,82.81
2017-04-05T04:44:54.904Z,82.91
2017-04-05T04:45:54.942Z,83
2017-04-05T04:46:54.971Z,83.1
2017-04-05T04:47:55.004Z,83
2017-04-05T04:48:55.037Z,82.91
2017-04-05T04:49:55.078Z,82.81
2017-04-05T04:50:55.114Z,83.58
2017-04-05T04:51:55.140Z,83.67
2017-04-05T04:52:55.183Z,83.19
2017-04-05T04:53:55.216Z,83.29
2017-04-05T04:54:55.246Z,83.48
2017-04-05T04:55:55.283Z,83.48
2017-04-05T04:56:55.315Z,83.42
2017-04-05T04:57:55.351Z,83.1
2017-04-05T04:58:55.383Z,83.19
2017-04-05T04:59:55.425Z,83.58
2017-04-05T05:00:55.460Z,83.1
2017-04-05T05:01:55.494Z,83.48
2017-04-05T05:02:55.527Z,83.48
2017-04-05T05:03:55.565Z,83.33
2017-04-05T05:04:55.594Z,83.23
2017-04-05T05:05:55.629Z,83.23
2017-04-05T05:06:55.661Z,83.14
2017-04-05T05:07:55.698Z,83.71
2017-04-05T05:08:55.733Z,83.81
2017-04-05T05:09:55.772Z,83.81
2017-04-05T05:10:55.896Z,83.62
2017-04-05T05:11:55.837Z,83.04
2017-04-05T05:12:55.870Z,83.42
2017-04-05T05:13:55.911Z,83.23
2017-04-05T05:14:55.950Z,83.14
2017-04-05T05:15:55.976Z,83.42
2017-04-05T05:16:56.016Z,83.62
2017-04-05T05:17:56.345Z,83.62
2017-04-05T05:18:56.133Z,83.04
2017-04-05T05:19:56.122Z,83.62
2017-04-05T05:20:56.171Z,83.33
2017-04-05T05:21:56.185Z,83.42
2017-04-05T05:22:56.219Z,83.52
2017-04-05T05:23:56.259Z,83.14
2017-04-05T05:24:56.290Z,83.33
2017-04-05T05:25:56.411Z,83.23
2017-04-05T05:26:56.362Z,83.42
2017-04-05T05:27:56.401Z,83.23
2017-04-05T05:28:56.473Z,83.23
2017-04-05T05:29:56.469Z,83.42
2017-04-05T05:30:56.504Z,83.42
2017-04-05T05:31:56.533Z,83.52
2017-04-05T05:32:56.567Z,83.33
2017-04-05T05:33:56.603Z,83.33
2017-04-05T05:34:56.636Z,83.33
2017-04-05T05:35:56.674Z,83.33
2017-04-05T05:36:56.714Z,83.52
2017-04-05T05:37:56.747Z,83.33
2017-04-05T05:38:56.783Z,83.33
2017-04-05T05:39:56.812Z,83.33
2017-04-05T05:40:56.851Z,83.52
2017-04-05T05:41:56.885Z,82.99
2017-04-05T05:42:56.917Z,82.9
2017-04-05T05:43:56.954Z,83.09
2017-04-05T05:44:56.991Z,83.09
2017-04-05T05:45:57.029Z,83.18
2017-04-05T05:46:57.058Z,82.9
2017-04-05T05:47:57.093Z,82.61
2017-04-05T05:48:57.128Z,82.32
2017-04-05T05:49:57.163Z,82.7
2017-04-05T05:50:57.197Z,82.7
2017-04-05T05:51:57.234Z,82.7
2017-04-05T05:52:57.269Z,82.9
2017-04-05T05:53:57.304Z,82.42
2017-04-05T05:54:57.341Z,82.7
2017-04-05T05:55:57.382Z,82.51
2017-04-05T05:56:57.416Z,82.7
2017-04-05T05:57:57.449Z,82.7
2017-04-05T05:58:57.484Z,82.42
2017-04-05T05:59:57.523Z,82.61
2017-04-05T06:00:57.557Z,82.23
2017-04-05T06:01:57.587Z,82.61
2017-04-05T06:02:57.623Z,82.8
2017-04-05T06:03:57.661Z,82.42
2017-04-05T06:04:57.694Z,82.61
2017-04-05T06:05:57.733Z,81.95
2017-04-05T06:06:57.767Z,81.95
2017-04-05T06:07:57.806Z,82.23
2017-04-05T06:08:57.841Z,81.95
2017-04-05T06:09:57.869Z,82.04
2017-04-05T06:10:57.903Z,81.95
2017-04-05T06:11:57.942Z,82.04
2017-04-05T06:12:57.977Z,82.14
2017-04-05T06:13:58.015Z,82.14
2017-04-05T06:14:58.044Z,82.14
2017-04-05T06:15:58.385Z,81.95
2017-04-05T06:16:58.117Z,82.04
2017-04-05T06:17:58.151Z,82.23
2017-04-05T06:18:58.187Z,82.32
2017-04-05T06:19:58.392Z,82.18
2017-04-05T06:20:58.259Z,81.7
2017-04-05T06:21:58.297Z,81.89
2017-04-05T06:22:58.346Z,81.89
2017-04-05T06:23:58.371Z,81.41
2017-04-05T06:24:58.416Z,81.7
2017-04-05T06:25:58.436Z,81.23
2017-04-05T06:26:58.476Z,80.94
2017-04-05T06:27:58.514Z,81.13
2017-04-05T06:28:58.547Z,81.03
2017-04-05T06:29:58.637Z,81.03
2017-04-05T06:30:58.619Z,81.13
2017-04-05T06:31:58.651Z,80.94
2017-04-05T06:32:58.693Z,81.13
2017-04-05T06:33:58.725Z,80.94
2017-04-05T06:34:58.790Z,80.75
2017-04-05T06:35:58.798Z,80.75
2017-04-05T06:36:58.839Z,80.84
2017-04-05T06:37:58.867Z,80.27
2017-04-05T06:38:58.904Z,80.18
2017-04-05T06:39:58.938Z,80.22
2017-04-05T06:40:58.979Z,80.18
2017-04-05T06:41:59.012Z,79.99
2017-04-05T06:42:59.048Z,80.02
2017-04-05T06:43:59.083Z,80.36
2017-04-05T06:44:59.116Z,80.36
2017-04-05T06:45:59.159Z,80.18
2017-04-05T06:46:59.191Z,79.8
2017-04-05T06:47:59.230Z,80.12
2017-04-05T06:48:59.270Z,79.55
2017-04-05T06:49:59.303Z,79.32
2017-04-05T06:50:59.337Z,79.46
2017-04-05T06:51:59.372Z,79.7
2017-04-05T06:52:59.409Z,79.6
2017-04-05T06:53:59.460Z,79.22
2017-04-05T06:54:59.482Z,79.36
2017-04-05T06:55:59.514Z,79.27
2017-04-05T06:56:59.581Z,79.32
2017-04-05T06:57:59.585Z,79.51
2017-04-05T06:58:59.620Z,78.85
2017-04-05T06:59:59.661Z,79.13
2017-04-05T07:00:59.697Z,78.94
2017-04-05T07:01:59.733Z,79.7
2017-04-05T07:02:59.766Z,79.32
2017-04-05T07:03:59.809Z,79.03
2017-04-05T07:05:00.149Z,79.51
2017-04-05T07:05:59.886Z,79.6
2017-04-05T07:06:59.912Z,79.41
2017-04-05T07:07:59.948Z,79.51
2017-04-05T07:08:59.992Z,79.07
2017-04-05T07:10:00.034Z,79.07
2017-04-05T07:11:00.055Z,78.78
2017-04-05T07:12:00.094Z,79.17
2017-04-05T07:13:00.127Z,79.07
2017-04-05T07:14:00.167Z,79.17
2017-04-05T07:15:00.201Z,79.36
2017-04-05T07:16:00.262Z,78.41
2017-04-05T07:17:00.270Z,79.07
2017-04-05T07:18:00.312Z,79.17
2017-04-05T07:19:00.348Z,78.78
2017-04-05T07:20:00.387Z,78.98
2017-04-05T07:21:00.422Z,79.02
2017-04-05T07:22:00.454Z,78.73
2017-04-05T07:23:00.690Z,78.16
2017-04-05T07:24:00.528Z,78.16
2017-04-05T07:25:00.560Z,77.59
2017-04-05T07:26:00.604Z,77.78
2017-04-05T07:27:00.642Z,77.69
2017-04-05T07:28:00.678Z,77.69
2017-04-05T07:29:00.710Z,77.3
2017-04-05T07:30:00.750Z,77.11
2017-04-05T07:31:00.788Z,77.69
2017-04-05T07:32:00.821Z,77.69
2017-04-05T07:33:00.855Z,77.78
2017-04-05T07:34:00.910Z,78.01
2017-04-05T07:35:00.983Z,78.01
2017-04-05T07:36:00.968Z,77.72
2017-04-05T07:37:01.004Z,77.62
2017-04-05T07:38:01.251Z,77.38
2017-04-05T07:39:01.082Z,76.52
2017-04-05T07:40:01.294Z,77.09
2017-04-05T07:41:01.157Z,76.23
2017-04-05T07:42:01.193Z,76.04
2017-04-05T07:43:01.242Z,76.08
2017-04-05T07:44:01.267Z,76.18
2017-04-05T07:45:01.306Z,75.79
2017-04-05T07:46:01.347Z,75.13
2017-04-05T07:47:01.386Z,74.37
2017-04-05T07:48:01.419Z,74.17
2017-04-05T07:49:01.461Z,73.79
2017-04-05T07:50:01.511Z,73.69
2017-04-05T07:51:01.536Z,73.69
2017-04-05T07:52:01.574Z,73.32
2017-04-05T07:53:01.610Z,73.08
2017-04-05T07:54:01.651Z,73.47
2017-04-05T07:55:01.687Z,73.56
2017-04-05T07:56:01.769Z,73.37
2017-04-05T07:57:01.780Z,73.75
2017-04-05T07:58:03.789Z,73.75
2017-04-05T07:59:01.834Z,73.28
2017-04-05T08:00:01.873Z,73.56
2017-04-05T08:01:01.914Z,73.47
2017-04-05T08:02:01.949Z,73.56
2017-04-05T08:03:01.985Z,73.66
2017-04-05T08:04:02.025Z,73.56
2017-04-05T08:05:02.068Z,73.37
2017-04-05T08:06:02.106Z,73.56
2017-04-05T08:07:02.143Z,73.18
2017-04-05T08:08:02.180Z,73.69
2017-04-05T08:09:02.206Z,73.5
2017-04-05T08:10:02.256Z,72.93
2017-04-05T08:11:02.283Z,72.93
2017-04-05T08:12:02.351Z,72.83
2017-04-05T08:13:02.367Z,72.55
2017-04-05T08:14:02.395Z,72.74
2017-04-05T08:15:02.437Z,72.93
2017-04-05T08:16:02.473Z,72.74
2017-04-05T08:17:02.522Z,72.93
2017-04-05T08:18:02.552Z,72.36
2017-04-05T08:19:02.595Z,72.93
2017-04-05T08:20:02.627Z,72.97
2017-04-05T08:21:02.971Z,72.78
2017-04-05T08:22:02.707Z,73.25
2017-04-05T08:23:02.745Z,72.05
2017-04-05T08:24:02.783Z,71.47
2017-04-05T08:25:02.838Z,70.75
2017-04-05T08:26:02.858Z,70.42
2017-04-05T08:27:02.900Z,70.36
2017-04-05T08:28:03.001Z,70.27
2017-04-05T08:29:02.988Z,70.36
2017-04-05T08:30:03.017Z,69.89
2017-04-05T08:31:03.048Z,69.6
2017-04-05T08:32:03.407Z,69.6
2017-04-05T08:33:03.452Z,69.54
2017-04-05T08:34:03.172Z,69.06
2017-04-05T08:35:03.220Z,68.58
2017-04-05T08:36:03.252Z,68.8
2017-04-05T08:37:03.360Z,68.33
2017-04-05T08:38:03.642Z,68.13
2017-04-05T08:39:03.673Z,68.71
2017-04-05T08:40:03.710Z,67.98
2017-04-05T08:41:03.452Z,67.79
2017-04-05T08:42:03.494Z,67.69
2017-04-05T08:43:03.530Z,67.5
2017-04-05T08:44:03.570Z,66.83
2017-04-05T08:45:03.607Z,66.64
2017-04-05T08:46:03.660Z,67.11
2017-04-05T08:47:03.686Z,66.35
2017-04-05T08:48:03.730Z,66.64
2017-04-05T08:49:04.073Z,66.41
2017-04-05T08:50:04.147Z,66.13
2017-04-05T08:51:03.845Z,66.22
2017-04-05T08:52:03.887Z,66.32
2017-04-05T08:53:03.922Z,66.22
2017-04-05T08:54:03.983Z,66.22
2017-04-05T08:55:04.006Z,65.9
2017-04-05T08:56:04.047Z,66.67
2017-04-05T08:57:04.080Z,66.67
2017-04-05T08:58:04.125Z,66.38
2017-04-05T08:59:04.160Z,66.57
2017-04-05T09:00:04.204Z,66.76
2017-04-05T09:01:05.654Z,66.57
2017-04-05T09:02:04.280Z,66.03
2017-04-05T09:03:04.318Z,66.03
2017-04-05T09:04:04.463Z,65.08
2017-04-05T09:05:04.401Z,65.55
2017-04-05T09:06:04.440Z,65.26
2017-04-05T09:07:04.476Z,65.55
2017-04-05T09:08:04.514Z,64.69
2017-04-05T09:09:04.557Z,64.88
2017-04-05T09:10:04.598Z,65.36
2017-04-05T09:11:04.632Z,65.45
2017-04-05T09:12:04.672Z,65.74
2017-04-05T09:13:04.711Z,65.26
2017-04-05T09:14:04.752Z,65.2
2017-04-05T09:15:04.797Z,65.58
2017-04-05T09:16:04.834Z,65.78
2017-04-05T09:17:04.872Z,66.19
2017-04-05T09:18:05.231Z,65.84
2017-04-05T09:19:04.958Z,64.92
2017-04-05T09:20:04.999Z,62.93
2017-04-05T09:21:05.041Z,63.16
2017-04-05T09:22:05.387Z,63.16
2017-04-05T09:23:05.128Z,62.52
2017-04-05T09:24:05.463Z,61.84
2017-04-05T09:25:05.212Z,61.2
2017-04-05T09:26:05.251Z,60.43
2017-04-05T09:27:05.300Z,58.99
2017-04-05T09:28:05.346Z,58.51
2017-04-05T09:29:05.920Z,57.65
2017-04-05T09:30:05.570Z,57.84
2017-04-05T09:31:05.465Z,57.43
2017-04-05T09:32:05.512Z,57.04
2017-04-05T09:33:05.550Z,56.82
2017-04-05T09:34:05.587Z,56.92
2017-04-05T09:35:05.670Z,57.37
2017-04-05T09:36:05.673Z,57.65
2017-04-05T09:37:05.726Z,57.85
2017-04-05T09:38:05.764Z,58.2
2017-04-05T09:39:05.803Z,57.5
2017-04-05T09:40:05.844Z,58.17
2017-04-05T09:41:05.885Z,58.37
2017-04-05T09:42:05.936Z,58.17
2017-04-05T09:43:06.044Z,58.44
2017-04-05T09:44:06.014Z,59.3
2017-04-05T09:45:06.117Z,59.39
2017-04-05T09:46:06.088Z,59.58
2017-04-05T09:47:06.143Z,59.58
2017-04-05T09:48:06.168Z,59.33
2017-04-05T09:49:06.296Z,59.16
2017-04-05T09:50:06.304Z,59.55
2017-04-05T09:51:06.296Z,58.87
2017-04-05T09:52:06.334Z,58.71
2017-04-05T09:53:06.376Z,58.04
2017-04-05T09:54:06.417Z,57.85
2017-04-05T09:55:06.531Z,57.65
2017-04-05T09:56:06.510Z,58.14
2017-04-05T09:57:06.549Z,57.65
2017-04-05T09:58:06.590Z,57.37
2017-04-05T09:59:06.630Z,57.65
2017-04-05T10:00:06.705Z,58.23
2017-04-05T10:01:06.728Z,58.23
2017-04-05T10:02:06.774Z,57.75
2017-04-05T10:03:06.846Z,57.21
2017-04-05T10:04:06.839Z,57.3
2017-04-05T10:05:07.046Z,57.3
2017-04-05T10:06:06.923Z,56.92
2017-04-05T10:07:06.966Z,56.82
2017-04-05T10:08:07.007Z,56.85
2017-04-05T10:09:07.049Z,57.04
2017-04-05T10:10:07.116Z,57.04
2017-04-05T10:11:07.139Z,56.37
2017-04-05T10:12:07.184Z,55.91
2017-04-05T10:13:07.398Z,55.73
2017-04-05T10:14:07.341Z,56.18
2017-04-05T10:15:07.315Z,55.63
2017-04-05T10:16:07.355Z,55.53
2017-04-05T10:17:07.485Z,56.11
2017-04-05T10:18:07.477Z,55.34
2017-04-05T10:19:07.484Z,55.44
2017-04-05T10:20:07.529Z,54.67
2017-04-05T10:21:07.569Z,54.6
2017-04-05T10:22:07.615Z,54.19
2017-04-05T10:23:07.653Z,54.47
2017-04-05T10:24:07.705Z,54.09
2017-04-05T10:25:07.746Z,54
2017-04-05T10:26:07.786Z,54
2017-04-05T10:27:07.835Z,53.7
2017-04-05T10:28:07.890Z,54.16
2017-04-05T10:29:07.917Z,54.25
2017-04-05T10:30:07.960Z,54.13
2017-04-05T10:31:08.000Z,54.42
2017-04-05T10:32:08.048Z,54.33
2017-04-05T10:33:08.088Z,54.21
2017-04-05T10:34:08.128Z,54.49
2017-04-05T10:35:08.169Z,54.78
2017-04-05T10:36:08.212Z,54.88
2017-04-05T10:37:08.247Z,55.83
2017-04-05T10:38:08.298Z,55.8
2017-04-05T10:39:08.403Z,55.8
2017-04-05T10:40:08.377Z,55.9
2017-04-05T10:41:08.433Z,56
2017-04-05T10:42:08.457Z,56
2017-04-05T10:43:08.507Z,56
2017-04-05T10:44:08.539Z,56.48
2017-04-05T10:45:08.580Z,56.45
2017-04-05T10:46:08.792Z,56.19
2017-04-05T10:47:08.674Z,56.48
2017-04-05T10:48:08.698Z,57.15
2017-04-05T10:49:08.742Z,57.15
2017-04-05T10:50:08.787Z,56.57
2017-04-05T10:51:08.840Z,56.98
2017-04-05T10:52:08.871Z,56.98
2017-04-05T10:53:08.911Z,56.31
2017-04-05T10:54:08.950Z,56.31
2017-04-05T10:55:08.993Z,57.08
2017-04-05T10:56:09.044Z,56.98
2017-04-05T10:57:09.072Z,56.7
2017-04-05T10:58:09.112Z,56.44
2017-04-05T10:59:09.159Z,55.86
2017-04-05T11:00:09.276Z,56.05
2017-04-05T11:01:09.241Z,56.24
2017-04-05T11:02:09.284Z,55.67
2017-04-05T11:03:09.328Z,56.05
2017-04-05T11:04:09.372Z,56.15
2017-04-05T11:05:09.417Z,55.96
2017-04-05T11:06:09.458Z,55.86
2017-04-05T11:07:09.495Z,55.57
2017-04-05T11:08:09.538Z,55.45
2017-04-05T11:09:09.588Z,55.55
2017-04-05T11:10:09.631Z,55.74
2017-04-05T11:11:09.689Z,55.83
2017-04-05T11:12:09.703Z,55.45
2017-04-05T11:13:09.747Z,55.74
2017-04-05T11:14:09.789Z,56.12
2017-04-05T11:15:09.832Z,55.64
2017-04-05T11:16:09.870Z,55.93
2017-04-05T11:17:09.908Z,55.9
2017-04-05T11:18:09.949Z,56.19
2017-04-05T11:19:09.989Z,56
2017-04-05T11:20:10.038Z,56
2017-04-05T11:21:10.070Z,56.48
2017-04-05T11:22:10.116Z,56.38
2017-04-05T11:23:10.154Z,56.38
2017-04-05T11:24:10.200Z,56.19
2017-04-05T11:25:10.236Z,56.29
2017-04-05T11:26:10.278Z,56.12
2017-04-05T11:27:10.319Z,55.83
2017-04-05T11:28:10.364Z,55.83
2017-04-05T11:29:10.408Z,55.64
2017-04-05T11:30:10.447Z,55.45
2017-04-05T11:31:10.496Z,55.74
2017-04-05T11:32:10.836Z,55.45
2017-04-05T11:33:10.582Z,55.45
2017-04-05T11:34:10.616Z,55.45
2017-04-05T11:35:10.662Z,55.45
2017-04-05T11:36:10.702Z,55.45
2017-04-05T11:37:10.745Z,55.74
2017-04-05T11:38:10.802Z,55.35
2017-04-05T11:39:10.840Z,55.77
2017-04-05T11:40:10.872Z,55.47
2017-04-05T11:41:10.915Z,55.19
2017-04-05T11:42:10.957Z,55.77
2017-04-05T11:43:11.000Z,55.19
2017-04-05T11:44:11.489Z,54.8
2017-04-05T11:45:12.928Z,55.1
2017-04-05T11:46:11.126Z,54.58
2017-04-05T11:47:11.165Z,54.97
2017-04-05T11:48:11.207Z,54.78
2017-04-05T11:49:11.645Z,54.97
2017-04-05T11:50:11.304Z,54.68
2017-04-05T11:51:11.346Z,54.58
2017-04-05T11:52:12.723Z,54.68
2017-04-05T11:53:11.417Z,54.68
2017-04-05T11:54:11.459Z,54.3
2017-04-05T11:55:11.498Z,54.01
2017-04-05T11:56:11.540Z,54.11
2017-04-05T11:57:11.593Z,54.21
2017-04-05T11:58:11.628Z,53.91
2017-04-05T11:59:11.663Z,54.27
2017-04-05T12:00:11.702Z,54.17
2017-04-05T12:01:11.749Z,54.08
2017-04-05T12:02:11.791Z,53.5
2017-04-05T12:03:11.827Z,53.41
2017-04-05T12:04:11.866Z,54.15
2017-04-05T12:05:11.933Z,54.24
2017-04-05T12:06:11.946Z,54.05
2017-04-05T12:07:11.990Z,54.34
2017-04-05T12:08:12.040Z,53.96
2017-04-05T12:09:12.066Z,53.86
2017-04-05T12:10:12.111Z,54.05
2017-04-05T12:11:12.149Z,54.24
2017-04-05T12:12:12.190Z,54.15
2017-04-05T12:13:12.227Z,54.15
2017-04-05T12:14:12.267Z,54.05
2017-04-05T12:15:12.310Z,54.03
2017-04-05T12:16:12.346Z,54.24
2017-04-05T12:17:12.391Z,54.24
2017-04-05T12:18:12.428Z,54.72
2017-04-05T12:19:12.476Z,54.24
2017-04-05T12:20:12.524Z,53.96
2017-04-05T12:21:12.547Z,53.86
2017-04-05T12:22:12.590Z,54.34
2017-04-05T12:23:12.635Z,54.24
2017-04-05T12:24:12.674Z,54.34
2017-04-05T12:25:12.711Z,54.05
2017-04-05T12:26:12.847Z,54.15
2017-04-05T12:27:12.792Z,54.24
2017-04-05T12:28:12.824Z,54.15
2017-04-05T12:29:13.168Z,53.77
2017-04-05T12:30:13.209Z,53.67
2017-04-05T12:31:12.945Z,53.67
2017-04-05T12:32:12.984Z,53.09
2017-04-05T12:33:13.025Z,52.78
2017-04-05T12:34:13.063Z,53.07
2017-04-05T12:35:13.427Z,53.36
2017-04-05T12:36:13.148Z,53.09
2017-04-05T12:37:13.190Z,53.26
2017-04-05T12:38:13.232Z,52.87
2017-04-05T12:39:13.267Z,52.97
2017-04-05T12:40:13.302Z,52.87
2017-04-05T12:41:13.348Z,52.78
2017-04-05T12:42:13.388Z,52.59
2017-04-05T12:45:13.508Z,53.16
2017-04-05T12:46:13.542Z,52.97
2017-04-05T12:47:13.580Z,52.78
2017-04-05T12:48:13.619Z,53.45
2017-04-05T12:49:13.664Z,53.23
2017-04-05T12:50:13.708Z,53.23
2017-04-05T12:51:13.736Z,53.33
2017-04-05T12:52:13.784Z,53.36
2017-04-05T12:53:13.822Z,53.81
2017-04-05T12:54:13.859Z,53.55
2017-04-05T12:55:13.897Z,53.81
2017-04-05T12:56:13.936Z,53.83
2017-04-05T12:57:13.972Z,53.83
2017-04-05T12:58:14.015Z,53.64
2017-04-05T12:59:14.052Z,54.12